Time;durP1;ratioP1;P1;durP2;ratioP2;P2;SDS_P1;SDS_P2;PMS_P1;PMS_P2;Temp;Humidity;BMP_temperature;BMP_pressure;BME280_temperature;BME280_humidity;BME280_pressure;Samples;Min_cycle;Max_cycle;Signal;HPM_P1;HPM_P2
2022/12/11 00:00:06;;;;;;;34.83;19.27;;;;;;;;;;4879159;29;20069;-60
2022/12/11 00:02:33;;;;;;;37.92;20.00;;;;;;;;;;4879744;29;20056;-59
2022/12/11 00:04:59;;;;;;;41.92;20.92;;;;;;;;;;4879525;29;20495;-60
2022/12/11 00:07:26;;;;;;;35.85;20.65;;;;;;;;;;4863400;29;20455;-59
2022/12/11 00:09:52;;;;;;;31.02;19.48;;;;;;;;;;4862903;29;20049;-59
2022/12/11 00:12:19;;;;;;;36.42;21.00;;;;;;;;;;4863291;29;20077;-60
2022/12/11 00:14:45;;;;;;;33.05;19.15;;;;;;;;;;4879561;29;20109;-60
2022/12/11 00:17:12;;;;;;;34.25;18.88;;;;;;;;;;4878994;29;20052;-60
2022/12/11 00:19:38;;;;;;;34.08;20.00;;;;;;;;;;4863239;29;20060;-60
2022/12/11 00:22:04;;;;;;;35.70;19.35;;;;;;;;;;4879758;29;20053;-59
2022/12/11 00:24:31;;;;;;;38.03;21.02;;;;;;;;;;4879623;29;20101;-60
2022/12/11 00:26:57;;;;;;;32.35;19.13;;;;;;;;;;4862543;29;20057;-59
2022/12/11 00:29:24;;;;;;;35.72;21.17;;;;;;;;;;4879927;29;20494;-62
2022/12/11 00:31:50;;;;;;;38.45;20.83;;;;;;;;;;4879943;29;20049;-60
2022/12/11 00:34:17;;;;;;;35.10;20.60;;;;;;;;;;4862661;29;20049;-59
2022/12/11 00:36:43;;;;;;;30.52;19.20;;;;;;;;;;4861875;29;20490;-59
2022/12/11 00:39:10;;;;;;;30.50;18.77;;;;;;;;;;4879017;29;20049;-60
2022/12/11 00:41:36;;;;;;;22.17;13.48;;;;;;;;;;4862564;29;20100;-60
2022/12/11 00:44:02;;;;;;;24.05;15.20;;;;;;;;;;4879032;29;20045;-60
2022/12/11 00:46:29;;;;;;;22.25;13.23;;;;;;;;;;4878370;29;20044;-60
2022/12/11 00:48:55;;;;;;;21.15;12.35;;;;;;;;;;4878984;29;20045;-59
2022/12/11 00:51:22;;;;;;;19.73;11.18;;;;;;;;;;4862313;29;20060;-59
2022/12/11 00:53:48;;;;;;;18.00;10.90;;;;;;;;;;4878917;29;20128;-60
2022/12/11 00:56:17;;;;;;;15.63;11.05;;;;;;;;;;4878276;29;20463;-60
2022/12/11 00:58:44;;;;;;;19.02;11.52;;;;;;;;;;4878951;29;20407;-59
2022/12/11 01:01:12;;;;;;;20.38;12.07;;;;;;;;;;4878731;29;20048;-61
2022/12/11 01:03:38;;;;;;;18.00;11.75;;;;;;;;;;4862367;29;20049;-60
2022/12/11 01:06:05;;;;;;;16.50;11.57;;;;;;;;;;4877935;29;20037;-59
2022/12/11 01:08:32;;;;;;;28.85;14.98;;;;;;;;;;4878607;29;20443;-60
2022/12/11 01:11:06;;;;;;;25.73;15.52;;;;;;;;;;4878264;29;20109;-60
2022/12/11 01:13:32;;;;;;;24.42;16.17;;;;;;;;;;4861911;29;20096;-59
2022/12/11 01:15:59;;;;;;;25.83;15.10;;;;;;;;;;4877791;29;20120;-60
2022/12/11 01:18:25;;;;;;;25.38;15.60;;;;;;;;;;4878515;29;20419;-60
2022/12/11 01:20:52;;;;;;;25.85;15.00;;;;;;;;;;4861614;29;20517;-60
2022/12/11 01:23:18;;;;;;;28.88;17.52;;;;;;;;;;4861656;29;20041;-59
2022/12/11 01:25:45;;;;;;;29.70;17.42;;;;;;;;;;4877610;29;20045;-59
2022/12/11 01:28:11;;;;;;;29.33;16.27;;;;;;;;;;4878221;29;20057;-61
2022/12/11 01:30:39;;;;;;;24.63;16.05;;;;;;;;;;4878222;29;20041;-59
2022/12/11 01:33:06;;;;;;;25.70;16.27;;;;;;;;;;4878409;29;20527;-59
2022/12/11 01:35:33;;;;;;;26.13;15.15;;;;;;;;;;4877702;29;20447;-59
2022/12/11 01:38:00;;;;;;;20.75;14.15;;;;;;;;;;4877987;29;20048;-60
2022/12/11 01:40:26;;;;;;;22.25;14.45;;;;;;;;;;4878174;29;20451;-60
2022/12/11 01:42:53;;;;;;;21.17;14.10;;;;;;;;;;4878100;29;20045;-60
2022/12/11 01:45:19;;;;;;;22.80;14.05;;;;;;;;;;4877359;29;20041;-59
2022/12/11 01:47:46;;;;;;;20.23;12.68;;;;;;;;;;4878063;29;20049;-59
2022/12/11 01:50:12;;;;;;;22.98;13.10;;;;;;;;;;4861474;29;20041;-60
2022/12/11 01:52:40;;;;;;;19.00;12.65;;;;;;;;;;4878272;29;20080;-60
2022/12/11 01:55:08;;;;;;;18.83;11.80;;;;;;;;;;4861012;29;20055;-60
2022/12/11 01:57:36;;;;;;;21.88;12.77;;;;;;;;;;4877872;29;20045;-60
2022/12/11 02:00:03;;;;;;;18.67;11.45;;;;;;;;;;4861498;29;20555;-59
2022/12/11 02:02:38;;;;;;;18.17;11.63;;;;;;;;;;4877792;29;20514;-60
2022/12/11 02:05:05;;;;;;;17.63;11.68;;;;;;;;;;4877323;29;20041;-60
2022/12/11 02:07:36;;;;;;;22.88;12.13;;;;;;;;;;4877643;29;20097;-59
2022/12/11 02:10:03;;;;;;;20.05;12.00;;;;;;;;;;4877868;29;20084;-60
2022/12/11 02:12:50;;;;;;;18.73;12.68;;;;;;;;;;4877965;29;20407;-59
2022/12/11 02:15:25;;;;;;;18.63;12.35;;;;;;;;;;4860802;29;20487;-59
2022/12/11 02:18:10;;;;;;;21.42;13.00;;;;;;;;;;4861029;29;20056;-59
2022/12/11 02:20:49;;;;;;;24.10;13.60;;;;;;;;;;4878147;29;20101;-59
2022/12/11 02:23:34;;;;;;;17.55;12.13;;;;;;;;;;4880745;29;20405;-59
2022/12/11 02:26:06;;;;;;;19.67;12.27;;;;;;;;;;4881646;29;20550;-60
2022/12/11 02:28:47;;;;;;;22.60;13.40;;;;;;;;;;4881968;29;20119;-60
2022/12/11 02:31:26;;;;;;;19.83;12.60;;;;;;;;;;4881741;29;20045;-59
2022/12/11 02:34:07;;;;;;;19.95;12.85;;;;;;;;;;4882162;29;20091;-59
2022/12/11 02:36:36;;;;;;;20.35;13.00;;;;;;;;;;4864488;29;20057;-59
2022/12/11 02:39:04;;;;;;;21.60;12.27;;;;;;;;;;4881742;29;20053;-59
2022/12/11 02:41:31;;;;;;;23.42;14.15;;;;;;;;;;4865290;29;20096;-59
2022/12/11 02:43:58;;;;;;;21.52;13.13;;;;;;;;;;4881946;29;20052;-60
2022/12/11 02:46:26;;;;;;;22.73;13.05;;;;;;;;;;4864081;29;20052;-60
2022/12/11 02:48:53;;;;;;;21.08;13.07;;;;;;;;;;4864693;29;20045;-60
2022/12/11 02:51:22;;;;;;;22.33;13.25;;;;;;;;;;4881075;29;20064;-59
2022/12/11 02:53:52;;;;;;;25.08;14.20;;;;;;;;;;4881869;29;20048;-60
2022/12/11 02:56:21;;;;;;;24.52;13.95;;;;;;;;;;4880890;29;20045;-60
2022/12/11 02:58:50;;;;;;;22.40;12.85;;;;;;;;;;4880933;29;20041;-59
2022/12/11 03:01:24;;;;;;;20.85;12.50;;;;;;;;;;4864290;29;20052;-59
2022/12/11 03:03:51;;;;;;;23.52;14.00;;;;;;;;;;4880834;29;20447;-60
2022/12/11 03:06:21;;;;;;;21.98;13.75;;;;;;;;;;4863524;29;20041;-60
2022/12/11 03:08:50;;;;;;;20.15;13.90;;;;;;;;;;4880856;29;20387;-60
2022/12/11 03:11:17;;;;;;;25.60;13.85;;;;;;;;;;4880794;29;20041;-60
2022/12/11 03:13:43;;;;;;;24.60;13.82;;;;;;;;;;4864382;29;20388;-60
2022/12/11 03:16:19;;;;;;;21.20;13.98;;;;;;;;;;4863614;29;20052;-60
2022/12/11 03:18:57;;;;;;;23.63;14.38;;;;;;;;;;4880557;29;20462;-59
2022/12/11 03:21:32;;;;;;;23.75;14.13;;;;;;;;;;4880537;29;20069;-59
2022/12/11 03:23:58;;;;;;;23.25;13.38;;;;;;;;;;4880501;29;20112;-59
2022/12/11 03:26:25;;;;;;;24.23;14.23;;;;;;;;;;4879890;29;20505;-59
2022/12/11 03:28:51;;;;;;;23.50;13.95;;;;;;;;;;4880596;29;20443;-60
2022/12/11 03:31:27;;;;;;;29.20;15.63;;;;;;;;;;4880371;29;20398;-59
2022/12/11 03:33:56;;;;;;;25.30;14.30;;;;;;;;;;4880095;29;20061;-59
2022/12/11 03:36:24;;;;;;;22.42;14.43;;;;;;;;;;4879637;29;20559;-58
2022/12/11 03:38:59;;;;;;;24.70;14.50;;;;;;;;;;4863773;29;20494;-58
2022/12/11 03:41:30;;;;;;;25.40;16.30;;;;;;;;;;4864127;29;20041;-59
2022/12/11 03:43:57;;;;;;;25.38;14.82;;;;;;;;;;4880103;29;20097;-59
2022/12/11 03:46:30;;;;;;;26.38;16.63;;;;;;;;;;4879300;29;20565;-59
2022/12/11 03:48:59;;;;;;;28.98;16.65;;;;;;;;;;4862968;29;20052;-60
2022/12/11 03:51:27;;;;;;;26.42;16.67;;;;;;;;;;4880012;29;20494;-59
2022/12/11 03:53:54;;;;;;;27.25;16.92;;;;;;;;;;4880135;29;20108;-59
2022/12/11 03:56:21;;;;;;;30.38;17.77;;;;;;;;;;4879248;29;20057;-59
2022/12/11 03:58:47;;;;;;;26.80;15.63;;;;;;;;;;4848039;29;20147;-58
2022/12/11 04:01:14;;;;;;;36.00;18.40;;;;;;;;;;4880068;29;20056;-60
2022/12/11 04:03:40;;;;;;;48.08;22.77;;;;;;;;;;4880358;29;20179;-60
2022/12/11 04:06:07;;;;;;;43.50;21.23;;;;;;;;;;4880298;29;20049;-60
2022/12/11 04:08:33;;;;;;;45.90;23.55;;;;;;;;;;4880335;29;20041;-60
2022/12/11 04:15:00;;;;;;;50.03;23.10;;;;;;;;;;4880378;29;20053;-60
2022/12/11 04:16:33;;;;;;;50.00;24.30;;;;;;;;;;4879772;29;20056;-60
2022/12/11 04:24:29;;;;;;;50.22;25.20;;;;;;;;;;4880830;29;20093;-60
2022/12/11 04:26:55;;;;;;;52.15;25.02;;;;;;;;;;4880441;29;20045;-60
2022/12/11 04:29:22;;;;;;;48.92;23.60;;;;;;;;;;4881644;29;20045;-59
2022/12/11 04:31:49;;;;;;;51.15;24.08;;;;;;;;;;4864075;29;20506;-60
2022/12/11 04:34:16;;;;;;;49.72;24.35;;;;;;;;;;4880630;29;20049;-60
2022/12/11 04:36:42;;;;;;;52.92;25.25;;;;;;;;;;4879831;29;20045;-60
2022/12/11 04:39:08;;;;;;;50.00;23.38;;;;;;;;;;4880645;29;20049;-59
2022/12/11 04:41:36;;;;;;;49.65;23.58;;;;;;;;;;4863470;29;20057;-60
2022/12/11 04:44:02;;;;;;;52.22;25.05;;;;;;;;;;4879869;29;20078;-60
2022/12/11 04:46:28;;;;;;;51.58;24.08;;;;;;;;;;4878241;29;20072;-60
2022/12/11 04:48:55;;;;;;;47.65;23.55;;;;;;;;;;4879448;29;20045;-60
2022/12/11 04:51:23;;;;;;;47.38;23.45;;;;;;;;;;4879433;29;20048;-59
2022/12/11 04:53:49;;;;;;;48.78;23.60;;;;;;;;;;4879388;29;20049;-60
2022/12/11 04:56:16;;;;;;;49.70;25.10;;;;;;;;;;4878806;29;20048;-59
2022/12/11 04:58:43;;;;;;;47.17;22.63;;;;;;;;;;4879276;29;20049;-60
2022/12/11 05:01:12;;;;;;;48.10;23.02;;;;;;;;;;5358583;23;20049;31
2022/12/11 05:03:39;;;;;;;48.22;22.48;;;;;;;;;;4875076;29;20045;-61
2022/12/11 05:06:06;;;;;;;55.72;25.80;;;;;;;;;;4862290;29;20136;-62
2022/12/11 05:08:34;;;;;;;52.30;25.02;;;;;;;;;;4862675;29;20052;-62
2022/12/11 05:11:02;;;;;;;54.10;24.95;;;;;;;;;;4879465;29;20123;-61
2022/12/11 05:13:29;;;;;;;45.10;23.50;;;;;;;;;;4879274;29;20068;-61
2022/12/11 05:15:55;;;;;;;52.97;23.98;;;;;;;;;;4878718;29;20125;-61
2022/12/11 05:18:22;;;;;;;49.67;23.63;;;;;;;;;;4847641;29;20101;-61
2022/12/11 05:20:59;;;;;;;57.08;23.35;;;;;;;;;;4879318;29;20033;-61
2022/12/11 05:23:26;;;;;;;48.00;21.77;;;;;;;;;;4862620;29;20060;-62
2022/12/11 05:25:53;;;;;;;46.55;22.45;;;;;;;;;;4878928;29;20097;-61
2022/12/11 05:28:20;;;;;;;48.53;22.27;;;;;;;;;;4879775;29;20051;-61
2022/12/11 05:30:47;;;;;;;49.20;21.65;;;;;;;;;;4879513;29;20530;-61
2022/12/11 05:33:14;;;;;;;50.65;21.73;;;;;;;;;;4862778;29;20458;-61
2022/12/11 05:35:45;;;;;;;49.72;22.83;;;;;;;;;;4879268;29;20065;-61
2022/12/11 05:38:11;;;;;;;45.17;20.95;;;;;;;;;;4879601;29;20072;-60
2022/12/11 05:40:38;;;;;;;50.80;22.88;;;;;;;;;;4880240;29;20423;-61
2022/12/11 05:43:04;;;;;;;42.28;20.70;;;;;;;;;;4863295;29;20045;-61
2022/12/11 05:45:30;;;;;;;46.28;21.73;;;;;;;;;;4880185;29;20056;-60
2022/12/11 05:47:57;;;;;;;46.78;21.55;;;;;;;;;;4879123;29;20045;-60
2022/12/11 05:50:23;;;;;;;44.95;21.17;;;;;;;;;;4879309;29;20056;-61
2022/12/11 05:52:50;;;;;;;48.45;21.85;;;;;;;;;;4863021;29;20391;-62
2022/12/11 05:55:16;;;;;;;50.58;21.70;;;;;;;;;;4880406;29;20438;-60
2022/12/11 05:57:43;;;;;;;49.72;22.30;;;;;;;;;;4879981;29;20048;-61
2022/12/11 06:00:11;;;;;;;45.80;22.10;;;;;;;;;;4879496;29;20422;-61
2022/12/11 06:02:37;;;;;;;47.05;21.20;;;;;;;;;;4878778;29;20101;-61
2022/12/11 06:05:04;;;;;;;46.67;21.85;;;;;;;;;;4882174;29;20125;-61
2022/12/11 06:07:30;;;;;;;47.53;22.42;;;;;;;;;;4883493;29;20049;-62
2022/12/11 06:09:57;;;;;;;46.45;21.30;;;;;;;;;;4882190;29;20049;-61
2022/12/11 06:12:23;;;;;;;47.88;21.73;;;;;;;;;;4880409;29;20442;-62
2022/12/11 06:14:49;;;;;;;46.40;21.52;;;;;;;;;;4878753;29;20089;-61
2022/12/11 06:17:16;;;;;;;48.65;21.67;;;;;;;;;;4878059;29;20053;-62
2022/12/11 06:19:42;;;;;;;42.38;20.90;;;;;;;;;;4878595;29;20569;-61
2022/12/11 06:22:09;;;;;;;47.95;21.73;;;;;;;;;;4878407;29;20109;-60
2022/12/11 06:24:35;;;;;;;48.53;21.73;;;;;;;;;;4861837;29;20116;-61
2022/12/11 06:27:01;;;;;;;45.85;20.55;;;;;;;;;;4877829;29;20056;-61
2022/12/11 06:29:28;;;;;;;43.75;20.38;;;;;;;;;;4878293;29;20041;-61
2022/12/11 06:31:54;;;;;;;45.72;20.65;;;;;;;;;;4861678;29;20041;-61
2022/12/11 06:34:22;;;;;;;45.38;20.75;;;;;;;;;;4878247;29;20570;-60
2022/12/11 06:36:48;;;;;;;50.88;24.10;;;;;;;;;;4877736;29;20502;-60
2022/12/11 06:39:14;;;;;;;44.03;21.95;;;;;;;;;;4878021;29;20041;-62
2022/12/11 06:41:41;;;;;;;44.30;20.92;;;;;;;;;;4878360;29;20045;-60
2022/12/11 06:44:07;;;;;;;43.85;21.63;;;;;;;;;;4878161;29;20045;-61
2022/12/11 06:46:34;;;;;;;42.05;21.35;;;;;;;;;;4878003;29;20037;-61
2022/12/11 06:49:01;;;;;;;43.20;20.38;;;;;;;;;;4878295;29;20518;-63
2022/12/11 06:51:27;;;;;;;50.75;21.08;;;;;;;;;;4878268;29;20513;-61
2022/12/11 06:53:54;;;;;;;47.10;22.38;;;;;;;;;;4878317;29;20073;-62
2022/12/11 06:56:21;;;;;;;44.03;20.30;;;;;;;;;;4861290;29;20041;-62
2022/12/11 06:58:48;;;;;;;48.38;21.05;;;;;;;;;;4878272;29;20557;-62
2022/12/11 07:01:21;;;;;;;46.65;21.65;;;;;;;;;;4877796;29;20550;-62
2022/12/11 07:03:51;;;;;;;43.90;22.33;;;;;;;;;;4878095;29;20049;-61
2022/12/11 07:06:17;;;;;;;46.65;21.92;;;;;;;;;;4877346;29;20494;-61
2022/12/11 07:08:44;;;;;;;48.05;22.40;;;;;;;;;;4862944;29;20139;-61
2022/12/11 07:11:11;;;;;;;46.05;20.85;;;;;;;;;;4864731;29;20105;-61
2022/12/11 07:13:38;;;;;;;40.65;21.08;;;;;;;;;;4881549;29;20490;-60
2022/12/11 07:16:09;;;;;;;46.25;21.65;;;;;;;;;;4864386;29;20048;-61
2022/12/11 07:18:36;;;;;;;45.95;22.00;;;;;;;;;;4881046;29;20052;-61
2022/12/11 07:21:04;;;;;;;47.47;21.90;;;;;;;;;;4881237;29;20741;-60
2022/12/11 07:23:30;;;;;;;45.83;21.95;;;;;;;;;;4864647;29;20056;-60
2022/12/11 07:25:57;;;;;;;46.60;20.90;;;;;;;;;;4880541;29;20109;-62
2022/12/11 07:28:23;;;;;;;47.20;21.35;;;;;;;;;;4881344;29;20471;-62
2022/12/11 07:30:50;;;;;;;43.60;20.55;;;;;;;;;;4864482;29;20100;-61
2022/12/11 07:33:16;;;;;;;51.15;22.13;;;;;;;;;;4864411;29;20100;-62
2022/12/11 07:35:42;;;;;;;49.33;22.88;;;;;;;;;;4864028;29;20049;-62
2022/12/11 07:38:09;;;;;;;46.17;21.95;;;;;;;;;;4881044;29;20052;-61
2022/12/11 07:40:35;;;;;;;51.05;22.38;;;;;;;;;;4881073;29;20040;-62
2022/12/11 07:43:02;;;;;;;45.83;21.45;;;;;;;;;;4880856;29;20570;-63
2022/12/11 07:45:28;;;;;;;52.00;21.65;;;;;;;;;;4863458;29;20044;-61
2022/12/11 07:47:55;;;;;;;47.78;21.98;;;;;;;;;;4880709;29;20055;-62
2022/12/11 07:50:22;;;;;;;51.30;22.63;;;;;;;;;;4864182;29;20116;-61
2022/12/11 07:52:48;;;;;;;49.58;22.48;;;;;;;;;;4880561;29;20113;-62
2022/12/11 07:55:14;;;;;;;45.55;20.92;;;;;;;;;;4880222;29;20199;-61
2022/12/11 07:57:41;;;;;;;50.40;23.27;;;;;;;;;;4880725;29;20053;-61
2022/12/11 08:00:07;;;;;;;48.95;21.38;;;;;;;;;;4880731;29;20078;-62
2022/12/11 08:02:37;;;;;;;53.22;22.83;;;;;;;;;;4864329;29;20140;-62
2022/12/11 08:05:04;;;;;;;47.78;22.15;;;;;;;;;;4879951;29;20137;-61
2022/12/11 08:07:32;;;;;;;47.35;21.05;;;;;;;;;;4864044;29;20049;-62
2022/12/11 08:09:59;;;;;;;45.13;21.90;;;;;;;;;;4880441;29;20073;-63
2022/12/11 08:12:25;;;;;;;45.20;19.73;;;;;;;;;;4880426;29;20567;-61
2022/12/11 08:14:51;;;;;;;40.67;18.30;;;;;;;;;;4863735;29;20049;-61
2022/12/11 08:17:18;;;;;;;43.75;19.98;;;;;;;;;;4879854;29;20045;-61
2022/12/11 08:19:47;;;;;;;39.08;18.70;;;;;;;;;;4863355;29;20048;-61
2022/12/11 08:22:14;;;;;;;39.25;20.00;;;;;;;;;;4880093;29;20097;-62
2022/12/11 08:24:40;;;;;;;37.38;19.67;;;;;;;;;;4880203;29;20045;-62
2022/12/11 08:27:06;;;;;;;42.45;19.27;;;;;;;;;;4863435;29;20451;-62
2022/12/11 08:29:33;;;;;;;42.95;20.13;;;;;;;;;;4880566;29;20041;-63
2022/12/11 08:31:59;;;;;;;41.70;19.83;;;;;;;;;;4880088;29;20388;-62
2022/12/11 08:34:26;;;;;;;43.38;21.08;;;;;;;;;;4880085;29;20089;-63
2022/12/11 08:36:52;;;;;;;39.67;17.77;;;;;;;;;;4862800;29;20406;-63
2022/12/11 08:39:19;;;;;;;43.13;20.80;;;;;;;;;;4880196;29;20041;-64
2022/12/11 08:41:45;;;;;;;41.08;18.15;;;;;;;;;;4880064;29;20045;-61
2022/12/11 08:44:13;;;;;;;45.40;21.33;;;;;;;;;;4879716;29;20481;-62
2022/12/11 08:46:42;;;;;;;42.00;21.20;;;;;;;;;;4879496;29;20088;-62
2022/12/11 08:49:09;;;;;;;44.53;20.38;;;;;;;;;;4879723;29;20519;-61
2022/12/11 08:51:35;;;;;;;39.63;20.25;;;;;;;;;;4863108;29;20144;-63
2022/12/11 08:54:02;;;;;;;41.47;19.77;;;;;;;;;;4863150;29;20053;-63
2022/12/11 08:56:29;;;;;;;39.42;19.77;;;;;;;;;;4862906;29;20387;-62
2022/12/11 08:58:58;;;;;;;34.05;17.55;;;;;;;;;;4862947;29;20101;-62
2022/12/11 09:01:25;;;;;;;38.40;19.27;;;;;;;;;;4879405;29;20041;-61
2022/12/11 09:03:52;;;;;;;36.60;18.08;;;;;;;;;;4879463;29;20053;-61
2022/12/11 09:06:20;;;;;;;31.70;16.95;;;;;;;;;;4878910;29;20375;-62
2022/12/11 09:08:47;;;;;;;36.00;17.15;;;;;;;;;;4879582;29;20085;-61
2022/12/11 09:11:22;;;;;;;39.75;19.00;;;;;;;;;;4879558;29;20041;-61
2022/12/11 09:13:49;;;;;;;37.58;18.02;;;;;;;;;;4862815;29;20049;-61
2022/12/11 09:16:16;;;;;;;35.13;17.33;;;;;;;;;;4878538;29;20041;-62
2022/12/11 09:18:47;;;;;;;35.95;18.35;;;;;;;;;;4879178;29;20502;-61
2022/12/11 09:21:14;;;;;;;33.40;15.80;;;;;;;;;;4879126;29;20048;-61
2022/12/11 09:23:41;;;;;;;29.55;16.75;;;;;;;;;;4862288;29;20143;-61
2022/12/11 09:26:12;;;;;;;34.60;17.38;;;;;;;;;;4878287;29;20075;-62
2022/12/11 09:28:39;;;;;;;36.08;17.98;;;;;;;;;;4879523;29;20494;-62
2022/12/11 09:31:12;;;;;;;34.97;17.15;;;;;;;;;;4879740;29;20124;-62
2022/12/11 09:33:39;;;;;;;34.90;17.48;;;;;;;;;;4879688;29;20160;-62
2022/12/11 09:36:06;;;;;;;35.35;17.20;;;;;;;;;;4879586;29;20045;-62
2022/12/11 09:38:32;;;;;;;35.20;18.48;;;;;;;;;;4880426;29;20108;-61
2022/12/11 09:40:59;;;;;;;37.08;18.73;;;;;;;;;;4880751;29;20048;-63
2022/12/11 09:43:36;;;;;;;31.52;17.33;;;;;;;;;;4864116;29;20084;-63
2022/12/11 09:46:10;;;;;;;32.25;16.48;;;;;;;;;;4880246;29;20053;-63
2022/12/11 09:48:38;;;;;;;30.30;16.65;;;;;;;;;;4880620;29;20414;-61
2022/12/11 09:51:09;;;;;;;32.35;16.20;;;;;;;;;;4880030;29;20049;-64
2022/12/11 09:53:36;;;;;;;30.17;16.05;;;;;;;;;;4863685;29;20400;-65
2022/12/11 09:56:08;;;;;;;29.38;15.43;;;;;;;;;;4882445;29;20057;-62
2022/12/11 09:58:53;;;;;;;28.95;15.65;;;;;;;;;;4873302;29;20049;-62
2022/12/11 10:01:52;;;;;;;27.40;15.15;;;;;;;;;;4880394;29;20455;-62
2022/12/11 10:04:19;;;;;;;26.75;14.65;;;;;;;;;;4858040;29;20092;-65
2022/12/11 10:06:48;;;;;;;27.45;14.82;;;;;;;;;;4878505;29;20494;-64
2022/12/11 10:09:14;;;;;;;30.13;16.05;;;;;;;;;;4862271;29;20041;-64
2022/12/11 10:11:56;;;;;;;28.60;15.60;;;;;;;;;;4878863;29;20041;-63
2022/12/11 10:14:37;;;;;;;38.58;20.15;;;;;;;;;;4862586;29;20230;-63
2022/12/11 10:17:14;;;;;;;29.17;17.58;;;;;;;;;;4861668;29;20550;-64
2022/12/11 10:19:41;;;;;;;29.55;15.40;;;;;;;;;;4878709;29;20566;-62
2022/12/11 10:22:13;;;;;;;29.27;14.27;;;;;;;;;;4861810;29;20052;-63
2022/12/11 10:24:41;;;;;;;25.77;13.98;;;;;;;;;;4878267;29;20053;-62
2022/12/11 10:27:30;;;;;;;31.58;16.85;;;;;;;;;;4861851;29;20052;-62
2022/12/11 10:30:16;;;;;;;26.52;14.60;;;;;;;;;;4878255;29;20075;-63
2022/12/11 10:33:05;;;;;;;29.38;16.08;;;;;;;;;;4871896;29;20061;-63
2022/12/11 10:35:38;;;;;;;30.85;16.13;;;;;;;;;;4878152;29;20049;-63
2022/12/11 10:38:12;;;;;;;26.48;14.55;;;;;;;;;;4878247;29;20055;-63
2022/12/11 10:40:43;;;;;;;33.63;16.60;;;;;;;;;;4878308;29;20052;-61
2022/12/11 10:43:09;;;;;;;28.45;15.55;;;;;;;;;;4878829;29;20458;-63
2022/12/11 10:45:36;;;;;;;27.77;14.95;;;;;;;;;;4881404;29;20048;-62
2022/12/11 10:48:08;;;;;;;27.88;16.30;;;;;;;;;;4865524;29;20049;-63
2022/12/11 10:50:35;;;;;;;37.42;19.05;;;;;;;;;;4881828;29;20045;-63
2022/12/11 10:53:01;;;;;;;40.55;21.83;;;;;;;;;;4881659;29;20717;-63
2022/12/11 10:55:39;;;;;;;31.95;16.17;;;;;;;;;;4864640;29;20089;-63
2022/12/11 10:58:11;;;;;;;27.27;15.65;;;;;;;;;;4881892;29;20049;-61
2022/12/11 11:00:39;;;;;;;27.88;16.92;;;;;;;;;;4881698;29;20048;-61
2022/12/11 11:03:26;;;;;;;30.88;16.67;;;;;;;;;;4880758;29;20076;-61
2022/12/11 11:06:03;;;;;;;32.58;16.45;;;;;;;;;;4879768;29;20462;-61
2022/12/11 11:08:39;;;;;;;38.80;17.73;;;;;;;;;;4864044;29;20112;-61
2022/12/11 11:11:14;;;;;;;42.08;18.95;;;;;;;;;;4880555;29;20049;-61
2022/12/11 11:13:41;;;;;;;41.78;19.60;;;;;;;;;;4864093;29;20408;-62
2022/12/11 11:16:11;;;;;;;33.20;17.63;;;;;;;;;;4879768;29;20049;-61
2022/12/11 11:18:39;;;;;;;35.00;18.13;;;;;;;;;;4880546;29;20048;-60
2022/12/11 11:21:06;;;;;;;36.33;18.00;;;;;;;;;;4880316;29;20074;-62
2022/12/11 11:23:33;;;;;;;36.63;17.52;;;;;;;;;;4880050;29;20105;-62
2022/12/11 11:26:06;;;;;;;36.28;18.70;;;;;;;;;;4863369;29;20081;-62
2022/12/11 11:28:37;;;;;;;31.02;16.83;;;;;;;;;;4880105;29;20041;-61
2022/12/11 11:31:05;;;;;;;40.17;18.95;;;;;;;;;;4863397;29;20104;-62
2022/12/11 11:33:33;;;;;;;30.15;17.13;;;;;;;;;;4880037;29;20045;-62
2022/12/11 11:36:01;;;;;;;31.30;16.60;;;;;;;;;;4879638;29;20048;-62
2022/12/11 11:38:27;;;;;;;33.97;17.30;;;;;;;;;;4863419;29;20049;-63
2022/12/11 11:40:57;;;;;;;28.58;15.38;;;;;;;;;;4880200;29;20049;-64
2022/12/11 11:43:51;;;;;;;30.60;16.27;;;;;;;;;;4879720;29;20486;-63
2022/12/11 11:46:27;;;;;;;33.53;17.48;;;;;;;;;;4879408;29;20056;-63
2022/12/11 11:49:06;;;;;;;30.10;15.63;;;;;;;;;;4879658;29;20124;-63
2022/12/11 11:51:34;;;;;;;34.47;16.42;;;;;;;;;;4879893;29;20482;-62
2022/12/11 11:54:06;;;;;;;32.28;16.27;;;;;;;;;;4879502;29;20559;-62
2022/12/11 11:56:35;;;;;;;32.45;16.35;;;;;;;;;;4879390;29;20052;-62
2022/12/11 11:59:22;;;;;;;29.38;15.93;;;;;;;;;;4879748;29;20478;-61
2022/12/11 12:01:49;;;;;;;30.63;15.75;;;;;;;;;;4844285;29;1063665;-64
2022/12/11 12:04:15;;;;;;;32.03;17.35;;;;;;;;;;4880580;29;20045;-63
2022/12/11 12:06:48;;;;;;;31.63;17.13;;;;;;;;;;4879857;29;20041;-65
2022/12/11 12:09:16;;;;;;;;;;;;;;;;;;4880802;29;20047;-63
2022/12/11 12:11:48;;;;;;;36.35;18.15;;;;;;;;;;4880300;29;19924;-63
2022/12/11 12:14:19;;;;;;;30.10;14.45;;;;;;;;;;4880279;29;20108;-63
2022/12/11 12:17:21;;;;;;;31.88;16.83;;;;;;;;;;4879900;29;20488;-61
2022/12/11 12:19:47;;;;;;;33.75;18.02;;;;;;;;;;4880256;29;20056;-63
2022/12/11 12:22:32;;;;;;;33.25;18.35;;;;;;;;;;4863380;29;20056;-62
2022/12/11 12:25:06;;;;;;;36.47;17.52;;;;;;;;;;4879871;29;20144;-64
2022/12/11 12:27:49;;;;;;;32.80;17.03;;;;;;;;;;4880193;29;20128;-64
2022/12/11 12:30:18;;;;;;;31.63;17.00;;;;;;;;;;4880165;29;20765;-63
2022/12/11 12:32:52;;;;;;;32.78;17.40;;;;;;;;;;4879938;29;20041;-64
2022/12/11 12:35:43;;;;;;;30.67;16.90;;;;;;;;;;4862935;29;20077;-64
2022/12/11 12:38:15;;;;;;;29.65;17.42;;;;;;;;;;4879785;29;20501;-64
2022/12/11 12:41:00;;;;;;;33.88;18.40;;;;;;;;;;4879888;29;20565;-63
2022/12/11 12:43:34;;;;;;;28.50;16.77;;;;;;;;;;4879780;29;20490;-63
2022/12/11 12:46:19;;;;;;;32.17;17.35;;;;;;;;;;4879061;29;20097;-64
2022/12/11 12:48:46;;;;;;;29.02;16.75;;;;;;;;;;4863506;29;20051;-64
2022/12/11 12:51:13;;;;;;;34.95;17.83;;;;;;;;;;4879650;29;20590;-63
2022/12/11 12:53:46;;;;;;;28.30;15.35;;;;;;;;;;4879779;29;20521;-63
2022/12/11 12:56:13;;;;;;;28.60;15.48;;;;;;;;;;4879079;29;20077;-61
2022/12/11 12:58:41;;;;;;;28.27;15.50;;;;;;;;;;4879801;29;20053;-62
2022/12/11 13:01:10;;;;;;;28.83;15.45;;;;;;;;;;4879631;29;20502;-62
2022/12/11 13:03:52;;;;;;;29.58;16.08;;;;;;;;;;4880421;29;20053;-62
2022/12/11 13:06:27;;;;;;;32.45;15.65;;;;;;;;;;4878561;29;20486;-61
2022/12/11 13:08:54;;;;;;;29.67;16.25;;;;;;;;;;4863048;29;20529;-61
2022/12/11 13:11:29;;;;;;;26.77;14.57;;;;;;;;;;4879390;29;20471;-61
2022/12/11 13:14:29;;;;;;;31.98;16.77;;;;;;;;;;4879591;29;20089;-62
2022/12/11 13:17:04;;;;;;;31.85;16.73;;;;;;;;;;4871806;29;20057;-61
2022/12/11 13:19:31;;;;;;;33.70;17.20;;;;;;;;;;4879407;29;20041;-63
2022/12/11 13:22:13;;;;;;;31.27;16.75;;;;;;;;;;4879650;29;20057;-62
2022/12/11 13:24:52;;;;;;;34.92;17.13;;;;;;;;;;4879224;29;20045;-62
2022/12/11 13:27:26;;;;;;;27.80;15.40;;;;;;;;;;4878592;29;20387;-61
2022/12/11 13:29:52;;;;;;;;;;;;;;;;;;4863333;29;20412;-62
2022/12/11 13:32:21;;;;;;;26.17;15.27;;;;;;;;;;4879144;29;19924;-61
2022/12/11 13:34:57;;;;;;;29.25;15.27;;;;;;;;;;4879373;29;20069;-62
2022/12/11 13:37:27;;;;;;;30.58;14.70;;;;;;;;;;4879525;29;20113;-62
2022/12/11 13:39:54;;;;;;;28.65;15.45;;;;;;;;;;4879082;29;20053;-61
2022/12/11 13:42:40;;;;;;;27.95;14.88;;;;;;;;;;4879002;29;20150;-61
2022/12/11 13:45:16;;;;;;;26.02;14.32;;;;;;;;;;4879151;29;20045;-61
2022/12/11 13:47:44;;;;;;;29.42;15.27;;;;;;;;;;4878823;29;20517;-62
2022/12/11 13:50:14;;;;;;;27.58;14.40;;;;;;;;;;4879404;29;20097;-61
2022/12/11 13:52:40;;;;;;;31.13;15.95;;;;;;;;;;4878862;29;20045;-61
2022/12/11 13:55:16;;;;;;;28.58;15.50;;;;;;;;;;4884321;29;20045;-62
2022/12/11 13:57:45;;;;;;;28.70;15.88;;;;;;;;;;4886067;29;20047;-62
2022/12/11 14:00:25;;;;;;;28.63;15.93;;;;;;;;;;4882912;29;20499;-61
2022/12/11 14:02:53;;;;;;;26.95;14.50;;;;;;;;;;4878850;29;20052;-61
2022/12/11 14:05:21;;;;;;;32.00;17.35;;;;;;;;;;4878290;29;20053;-62
2022/12/11 14:07:49;;;;;;;29.85;16.38;;;;;;;;;;4878524;29;20037;-63
2022/12/11 14:10:26;;;;;;;27.60;15.32;;;;;;;;;;4878863;29;20045;-61
2022/12/11 14:13:01;;;;;;;33.40;15.77;;;;;;;;;;4861908;29;20044;-63
2022/12/11 14:15:28;;;;;;;34.70;16.63;;;;;;;;;;4861303;29;20045;-61
2022/12/11 14:17:55;;;;;;;29.30;15.70;;;;;;;;;;4861156;29;20053;-62
2022/12/11 14:20:24;;;;;;;33.70;16.50;;;;;;;;;;4862049;29;20064;-60
2022/12/11 14:22:50;;;;;;;30.73;15.98;;;;;;;;;;4878541;29;20048;-62
2022/12/11 14:25:21;;;;;;;30.42;16.17;;;;;;;;;;4878098;29;20045;-62
2022/12/11 14:27:49;;;;;;;28.65;15.68;;;;;;;;;;4878428;29;20052;-61
2022/12/11 14:30:19;;;;;;;30.98;15.48;;;;;;;;;;4878417;29;20067;-63
2022/12/11 14:32:49;;;;;;;29.20;16.05;;;;;;;;;;4878301;29;20041;-61
2022/12/11 14:35:37;;;;;;;35.60;17.98;;;;;;;;;;4877708;29;20056;-62
2022/12/11 14:38:22;;;;;;;31.25;15.77;;;;;;;;;;4878361;29;20574;-61
2022/12/11 14:40:49;;;;;;;;;;;;;;;;;;4878832;29;20105;-62